Time;durP1;ratioP1;P1;durP2;ratioP2;P2;SDS_P1;SDS_P2;PMS_P1;PMS_P2;Temp;Humidity;BMP_temperature;BMP_pressure;BME280_temperature;BME280_humidity;BME280_pressure;Samples;Min_cycle;Max_cycle;Signal;HPM_P1;HPM_P2
2022/12/14 00:00:56;;;;;;;1999.90;576.05;;;0.70;99.90;;;;;;5073856;28;20044;-62
2022/12/14 00:03:22;;;;;;;57.92;35.67;;;0.50;1.00;;;;;;5073739;28;20040;-62
2022/12/14 00:05:48;;;;;;;61.45;38.00;;;0.80;1.00;;;;;;5073975;28;20036;-62
2022/12/14 00:08:14;;;;;;;58.97;36.50;;;0.70;1.00;;;;;;5073548;28;20098;-62
2022/12/14 00:10:40;;;;;;;61.90;36.83;;;0.30;1.00;;;;;;5073352;28;20062;-62
2022/12/14 00:13:07;;;;;;;59.75;37.55;;;0.50;1.00;;;;;;5073756;28;20094;-62
2022/12/14 00:15:33;;;;;;;62.75;37.70;;;0.60;1.00;;;;;;5073577;28;20086;-62
2022/12/14 00:17:59;;;;;;;66.22;34.50;;;0.60;1.00;;;;;;5073134;28;20032;-62
2022/12/14 00:20:26;;;;;;;61.40;38.00;;;0.10;1.00;;;;;;5071740;28;20044;-62
2022/12/14 00:22:55;;;;;;;58.33;38.03;;;0.60;1.00;;;;;;5073687;28;20055;-62
2022/12/14 00:25:21;;;;;;;60.38;38.50;;;0.20;1.00;;;;;;5073199;28;20044;-62
2022/12/14 00:27:47;;;;;;;64.70;38.85;;;0.70;1.00;;;;;;5073448;28;20111;-62
2022/12/14 00:30:15;;;;;;;62.58;38.78;;;0.30;1.00;;;;;;5072733;28;20490;-62
2022/12/14 00:32:41;;;;;;;63.67;36.20;;;0.50;1.00;;;;;;5073341;28;20039;-62
2022/12/14 00:35:11;;;;;;;58.47;36.22;;;0.30;1.00;;;;;;5072812;28;20036;-62
2022/12/14 00:37:38;;;;;;;61.83;37.45;;;0.50;1.00;;;;;;5072955;28;20165;-62
2022/12/14 00:40:05;;;;;;;66.50;38.80;;;0.60;1.00;;;;;;5072943;28;20036;-62
2022/12/14 00:42:31;;;;;;;60.15;37.05;;;0.20;1.00;;;;;;5073196;28;20486;-62
2022/12/14 00:44:56;;;;;;;60.00;38.55;;;0.00;1.00;;;;;;5072075;28;20059;-62
2022/12/14 00:47:22;;;;;;;64.20;37.17;;;-0.20;1.00;;;;;;5071983;28;20123;-62
2022/12/14 00:49:48;;;;;;;57.85;36.55;;;0.00;99.90;;;;;;5070438;28;20078;-62
2022/12/14 00:52:13;;;;;;;62.30;36.35;;;-0.30;99.90;;;;;;5072324;28;20071;-62
2022/12/14 00:54:39;;;;;;;57.10;35.53;;;-0.30;99.90;;;;;;5068988;28;20036;-62
2022/12/14 00:57:05;;;;;;;56.88;35.72;;;-0.20;99.90;;;;;;5069871;28;20028;-62
2022/12/14 00:59:31;;;;;;;58.33;34.45;;;-0.40;99.90;;;;;;5071326;28;20036;-62
2022/12/14 01:01:56;;;;;;;56.78;34.55;;;-0.60;99.90;;;;;;5070541;28;20037;-62
2022/12/14 01:04:23;;;;;;;62.08;37.33;;;-0.40;99.90;;;;;;5071197;28;20040;-62
2022/12/14 01:06:50;;;;;;;56.65;33.88;;;-0.50;99.90;;;;;;5071702;28;20037;-62
2022/12/14 01:09:18;;;;;;;57.72;35.72;;;-0.10;1.00;;;;;;5069963;28;20456;-62
2022/12/14 01:11:45;;;;;;;56.50;33.30;;;-0.20;1.00;;;;;;5071953;28;20097;-62
2022/12/14 01:14:12;;;;;;;58.70;35.13;;;-0.30;1.00;;;;;;5072413;28;20032;-62
2022/12/14 01:16:38;;;;;;;60.42;36.42;;;-0.30;1.00;;;;;;5072141;28;20040;-62
2022/12/14 01:19:04;;;;;;;59.03;35.60;;;0.10;1.00;;;;;;5072117;28;20506;-62
2022/12/14 01:21:30;;;;;;;60.20;35.75;;;0.00;1.00;;;;;;5072363;28;20041;-62
2022/12/14 01:23:58;;;;;;;65.20;36.83;;;0.00;1.00;;;;;;5072203;28;20037;-62
2022/12/14 01:26:25;;;;;;;58.03;36.70;;;-0.20;1.00;;;;;;5072098;28;20039;-62
2022/12/14 01:28:55;;;;;;;60.53;36.67;;;0.20;1.00;;;;;;5071928;28;20111;-62
2022/12/14 01:31:22;;;;;;;54.20;34.15;;;0.10;1.00;;;;;;5072295;28;20470;-62
2022/12/14 01:33:48;;;;;;;58.63;36.30;;;0.20;1.00;;;;;;5070413;28;20044;-62
2022/12/14 01:36:17;;;;;;;56.97;35.80;;;0.10;1.00;;;;;;5071880;28;20041;-63
2022/12/14 01:38:44;;;;;;;55.92;34.58;;;0.20;1.00;;;;;;5071911;28;20552;-63
2022/12/14 01:41:28;;;;;;;57.10;36.25;;;0.10;1.00;;;;;;5072303;28;20043;-63
2022/12/14 01:44:07;;;;;;;55.63;34.80;;;0.00;1.00;;;;;;5064625;28;20539;-62
2022/12/14 01:46:40;;;;;;;54.30;32.40;;;0.30;1.00;;;;;;5071988;28;20421;-62
2022/12/14 01:49:38;;;;;;;59.90;36.88;;;0.10;1.00;;;;;;5071409;28;20066;-62
2022/12/14 01:52:12;;;;;;;59.42;36.00;;;0.30;1.00;;;;;;5071693;28;20478;-62
2022/12/14 01:55:02;;;;;;;59.70;34.70;;;0.10;1.00;;;;;;5071281;28;20520;-62
2022/12/14 01:57:35;;;;;;;56.70;32.40;;;0.10;1.00;;;;;;5071519;28;20040;-62
2022/12/14 02:00:03;;;;;;;53.22;32.53;;;-0.30;1.00;;;;;;5071368;28;20040;-62
2022/12/14 02:02:29;;;;;;;52.38;32.90;;;-0.10;1.00;;;;;;5071950;28;20040;-62
2022/12/14 02:04:58;;;;;;;53.85;34.28;;;-0.50;1.00;;;;;;5071779;28;20463;-62
2022/12/14 02:07:25;;;;;;;54.10;33.47;;;-0.40;1.00;;;;;;5071247;28;20128;-62
2022/12/14 02:09:52;;;;;;;57.28;35.40;;;-0.10;1.00;;;;;;5077686;28;20040;-62
2022/12/14 02:12:28;;;;;;;54.35;32.13;;;-0.10;1.00;;;;;;5071246;28;20230;-62
2022/12/14 02:14:54;;;;;;;59.13;33.67;;;-0.40;1.00;;;;;;5071206;28;20059;-62
2022/12/14 02:17:20;;;;;;;53.40;31.42;;;-0.20;1.00;;;;;;5070363;28;20048;-62
2022/12/14 02:19:48;;;;;;;53.28;30.83;;;-0.50;99.90;;;;;;5071316;28;20387;-62
2022/12/14 02:22:31;;;;;;;54.45;31.27;;;-0.70;99.90;;;;;;5069771;28;20055;-62
2022/12/14 02:25:11;;;;;;;55.65;31.83;;;-0.80;99.90;;;;;;5071394;28;20042;-62
2022/12/14 02:28:09;;;;;;;55.13;32.35;;;-0.90;99.90;;;;;;5071758;28;20094;-62
2022/12/14 02:30:38;;;;;;;56.72;32.58;;;-1.10;99.90;;;;;;5070372;28;20041;-62
2022/12/14 02:33:26;;;;;;;59.65;34.60;;;-1.20;99.90;;;;;;5070565;28;20029;-62
2022/12/14 02:36:07;;;;;;;57.88;33.50;;;-1.10;99.90;;;;;;5067898;28;20055;-62
2022/12/14 02:38:48;;;;;;;60.92;33.47;;;-0.80;99.90;;;;;;5071219;28;20044;-62
2022/12/14 02:41:51;;;;;;;58.22;32.38;;;-0.70;99.90;;;;;;5071897;28;20037;-62
2022/12/14 02:44:35;;;;;;;53.72;33.53;;;-0.70;1.00;;;;;;5071284;28;20095;-62
2022/12/14 02:47:25;;;;;;;50.55;31.83;;;-0.90;1.00;;;;;;5069496;28;20044;-62
2022/12/14 02:50:08;;;;;;;58.92;32.85;;;-1.00;1.00;;;;;;5071510;28;20567;-62
2022/12/14 02:52:46;;;;;;;54.25;31.95;;;-0.80;1.00;;;;;;5065519;28;20482;-62
2022/12/14 02:55:17;;;;;;;57.53;32.33;;;-1.00;1.00;;;;;;5071092;28;20048;-62
2022/12/14 02:57:48;;;;;;;55.83;34.67;;;-0.50;1.00;;;;;;5071260;28;21593;-62
2022/12/14 03:00:14;;;;;;;54.70;32.70;;;-0.90;1.00;;;;;;5073886;28;20439;-62
2022/12/14 03:02:42;;;;;;;56.47;32.50;;;-0.90;1.00;;;;;;5074608;28;20075;-62
2022/12/14 03:05:09;;;;;;;56.60;32.58;;;-0.70;1.00;;;;;;5074306;28;20038;-62
2022/12/14 03:07:47;;;;;;;54.28;32.97;;;-0.60;1.00;;;;;;5074741;28;20039;-62
2022/12/14 03:10:41;;;;;;;59.60;34.13;;;-0.60;1.00;;;;;;5074522;28;20123;-62
2022/12/14 03:13:31;;;;;;;58.03;34.53;;;-1.00;1.00;;;;;;5074349;28;20036;-62
2022/12/14 03:16:01;;;;;;;64.30;35.78;;;-0.80;1.00;;;;;;5073670;28;20378;-62
2022/12/14 03:18:50;;;;;;;62.58;35.75;;;-0.40;1.00;;;;;;5056062;28;20517;-62
2022/12/14 03:21:24;;;;;;;60.05;33.38;;;-0.70;1.00;;;;;;5073813;28;20040;-62
2022/12/14 03:23:51;;;;;;;57.33;34.20;;;-0.70;1.00;;;;;;5074499;28;20095;-62
2022/12/14 03:26:39;;;;;;;61.53;34.67;;;-0.40;1.00;;;;;;5074636;28;20157;-62
2022/12/14 03:29:09;;;;;;;55.13;32.53;;;-0.20;1.00;;;;;;5073947;28;20549;-62
2022/12/14 03:31:47;;;;;;;64.03;33.60;;;-0.50;1.00;;;;;;5074510;28;20502;-62
2022/12/14 03:34:16;;;;;;;53.25;32.28;;;-0.50;1.00;;;;;;5074485;28;20032;-62
2022/12/14 03:36:51;;;;;;;56.28;32.10;;;-0.20;1.00;;;;;;5074762;28;20082;-62
2022/12/14 03:39:25;;;;;;;59.65;33.03;;;-1.00;1.00;;;;;;5073129;28;20097;-62
2022/12/14 03:41:54;;;;;;;54.00;31.55;;;-0.80;1.00;;;;;;5073309;28;20044;-62
2022/12/14 03:44:46;;;;;;;60.28;34.92;;;-1.00;1.00;;;;;;5074140;28;20570;-62
2022/12/14 03:47:23;;;;;;;57.08;33.83;;;-0.70;1.00;;;;;;5069530;28;20476;-62
2022/12/14 03:50:11;;;;;;;57.53;33.92;;;-0.30;8.20;;;;;;5073438;28;20041;-62
2022/12/14 03:52:48;;;;;;;56.92;32.92;;;-0.50;22.40;;;;;;5054693;28;20493;-62
2022/12/14 03:55:31;;;;;;;55.90;32.47;;;-0.10;22.50;;;;;;5070101;28;20037;-63
2022/12/14 03:58:21;;;;;;;56.08;30.88;;;-0.10;27.50;;;;;;5070254;28;20555;-62
2022/12/14 04:00:56;;;;;;;49.35;31.55;;;-0.50;17.10;;;;;;5067996;28;20036;-62
2022/12/14 04:03:47;;;;;;;58.73;34.17;;;-0.50;1.00;;;;;;5073597;28;20044;-62
2022/12/14 04:06:20;;;;;;;55.70;31.77;;;-0.10;1.00;;;;;;5055217;28;20795;-62
2022/12/14 04:09:14;;;;;;;61.00;34.15;;;-0.30;24.20;;;;;;5073277;28;20805;-62
2022/12/14 04:20:52;;;;;;;64.97;34.63;;;-0.50;1.00;;;;;;5073520;28;20127;-63
2022/12/14 04:26:21;;;;;;;57.20;32.22;;;-0.40;1.00;;;;;;5061362;28;20051;-62
2022/12/14 04:31:40;;;;;;;68.97;40.33;;;-0.70;1.00;;;;;;5066434;28;20127;-63
2022/12/14 04:34:10;;;;;;;58.35;32.03;;;-0.80;1.00;;;;;;5071875;28;20093;-62
2022/12/14 04:36:45;;;;;;;55.78;31.48;;;-0.50;1.00;;;;;;5073122;28;20047;-63
2022/12/14 04:39:24;;;;;;;52.25;31.52;;;-0.70;1.00;;;;;;5073030;28;20494;-62
2022/12/14 04:41:53;;;;;;;51.80;30.17;;;-0.50;1.00;;;;;;5072007;28;20119;-62
2022/12/14 04:44:28;;;;;;;58.00;33.03;;;-0.50;1.00;;;;;;5072601;28;20529;-63
2022/12/14 04:46:56;;;;;;;80.25;50.58;;;-0.70;1.00;;;;;;5072748;28;20033;-62
2022/12/14 04:49:29;;;;;;;62.78;37.42;;;-0.70;1.00;;;;;;5072067;28;20452;-63
2022/12/14 04:52:03;;;;;;;53.85;32.28;;;0.10;1.00;;;;;;5069332;28;20040;-62
2022/12/14 04:54:37;;;;;;;59.88;34.58;;;-0.60;1.00;;;;;;5072708;28;20678;-63
2022/12/14 04:57:24;;;;;;;55.60;32.22;;;-0.30;1.00;;;;;;5072791;28;20052;-62
2022/12/14 04:59:50;;;;;;;52.55;30.80;;;-0.70;1.00;;;;;;5071900;28;20036;-62
2022/12/14 05:02:40;;;;;;;52.50;30.52;;;-0.70;1.00;;;;;;5072718;28;20040;-62
2022/12/14 05:05:36;;;;;;;50.03;29.50;;;-0.80;1.00;;;;;;5068268;28;20131;-63
2022/12/14 05:08:31;;;;;;;59.85;33.83;;;-0.90;1.00;;;;;;5072583;28;20043;-63
2022/12/14 05:11:22;;;;;;;54.95;32.38;;;-0.70;1.00;;;;;;5069637;28;20467;-62
2022/12/14 05:13:49;;;;;;;56.22;31.90;;;-1.10;1.00;;;;;;5057875;28;20072;-63
2022/12/14 05:16:20;;;;;;;57.55;33.78;;;-1.00;1.00;;;;;;5052719;28;20087;-63
2022/12/14 05:18:46;;;;;;;57.72;33.72;;;-1.00;1.00;;;;;;5059018;28;20040;-63
2022/12/14 05:21:45;;;;;;;148.38;35.72;;;-0.90;1.00;;;;;;5072298;28;20050;-63
2022/12/14 05:24:00;;;;;;;56.28;34.42;;;-0.40;1.00;;;;;;5058082;28;20072;-63
2022/12/14 05:26:26;;;;;;;52.92;30.80;;;-0.30;99.90;;;;;;5052782;28;20660;-63
2022/12/14 05:28:52;;;;;;;55.53;31.50;;;-0.80;99.90;;;;;;5062887;28;20481;-63
2022/12/14 05:31:17;;;;;;;57.70;32.65;;;-0.80;99.90;;;;;;5072415;28;20492;-63
2022/12/14 05:33:43;;;;;;;54.78;33.33;;;-0.90;99.90;;;;;;5068429;28;20036;-63
2022/12/14 05:36:08;;;;;;;53.08;32.97;;;-0.90;99.90;;;;;;5067429;28;20051;-62
2022/12/14 05:38:34;;;;;;;52.08;30.58;;;-0.50;99.90;;;;;;5066720;28;20420;-63
2022/12/14 05:41:00;;;;;;;53.00;31.27;;;-0.50;99.90;;;;;;5071529;28;20055;-63
2022/12/14 05:43:25;;;;;;;62.45;33.00;;;-0.90;99.90;;;;;;5061661;28;20064;-63
2022/12/14 05:45:58;;;;;;;55.35;32.80;;;-0.90;99.90;;;;;;5073445;28;20120;-63
2022/12/14 05:48:23;;;;;;;57.17;33.72;;;-0.30;99.90;;;;;;5067521;28;20040;-63
2022/12/14 05:50:50;;;;;;;53.17;31.55;;;-0.60;99.90;;;;;;5065085;28;20512;-63
2022/12/14 05:53:16;;;;;;;54.97;32.10;;;-0.60;99.90;;;;;;5071592;28;20040;-66
2022/12/14 05:55:49;;;;;;;59.20;32.97;;;-1.00;99.90;;;;;;5070631;28;20105;-64
2022/12/14 05:58:15;;;;;;;1999.90;192.90;;;-1.00;99.90;;;;;;5066150;28;20421;-64
2022/12/14 06:00:40;;;;;;;60.10;33.38;;;-0.40;99.90;;;;;;5069852;28;20036;-63
2022/12/14 06:03:06;;;;;;;55.47;32.72;;;-0.90;99.90;;;;;;5069019;28;20102;-63
2022/12/14 06:05:32;;;;;;;55.05;33.38;;;-0.70;99.90;;;;;;5067529;28;20044;-63
2022/12/14 06:07:57;;;;;;;55.38;32.88;;;-0.30;99.90;;;;;;5072958;28;20032;-62
2022/12/14 06:10:23;;;;;;;67.07;30.77;;;-1.00;99.90;;;;;;5069711;28;20448;-62
2022/12/14 06:12:49;;;;;;;54.53;30.73;;;-0.90;99.90;;;;;;5067962;28;20379;-63
2022/12/14 06:15:14;;;;;;;107.20;31.67;;;-1.00;99.90;;;;;;5067716;28;20044;-63
2022/12/14 06:17:46;;;;;;;52.28;30.77;;;-0.80;99.90;;;;;;5069180;28;20506;-63
2022/12/14 06:20:13;;;;;;;57.40;31.27;;;-1.00;99.90;;;;;;5058177;28;20036;-63
2022/12/14 06:22:39;;;;;;;52.22;30.58;;;-0.80;99.90;;;;;;5063540;28;20098;-62
2022/12/14 06:25:05;;;;;;;53.05;30.55;;;-0.80;99.90;;;;;;5066890;28;20066;-62
2022/12/14 06:27:31;;;;;;;49.67;30.33;;;-0.50;99.90;;;;;;5067128;28;20047;-62
2022/12/14 06:29:57;;;;;;;55.13;31.50;;;-0.60;99.90;;;;;;5067530;28;20024;-62
2022/12/14 06:32:23;;;;;;;47.65;29.85;;;-0.80;98.10;;;;;;5066184;28;20037;-62
2022/12/14 06:34:49;;;;;;;52.60;32.38;;;-0.90;91.90;;;;;;5067178;28;20040;-62
2022/12/14 06:37:15;;;;;;;956.97;58.58;;;-1.00;90.10;;;;;;5069766;28;20041;-63
2022/12/14 06:39:40;;;;;;;57.67;30.58;;;-0.60;90.50;;;;;;5063786;28;20554;-63
2022/12/14 06:42:06;;;;;;;47.67;28.75;;;-0.90;99.90;;;;;;5067505;28;20048;-64
2022/12/14 06:44:32;;;;;;;47.67;30.73;;;-0.90;97.60;;;;;;5074730;28;20443;-63
2022/12/14 06:46:57;;;;;;;45.30;27.40;;;-0.80;94.70;;;;;;5075255;28;20504;-64
2022/12/14 06:49:23;;;;;;;46.33;28.90;;;-0.90;94.70;;;;;;5067475;28;20032;-63
2022/12/14 06:51:49;;;;;;;48.67;28.10;;;-0.80;92.20;;;;;;5073819;28;20040;-64
2022/12/14 06:54:16;;;;;;;45.40;27.27;;;-0.80;82.40;;;;;;5065059;28;20036;-63
2022/12/14 06:56:43;;;;;;;58.72;28.35;;;-0.70;78.30;;;;;;5070653;28;20047;-63
2022/12/14 06:59:09;;;;;;;48.20;29.08;;;-0.60;81.60;;;;;;5071858;28;20036;-63
2022/12/14 07:01:36;;;;;;;48.28;29.08;;;-0.80;84.10;;;;;;5072250;28;20058;-64
2022/12/14 07:04:02;;;;;;;50.53;29.75;;;-0.80;71.20;;;;;;5069701;28;20041;-63
2022/12/14 07:06:32;;;;;;;49.50;30.30;;;-0.90;64.40;;;;;;5067549;28;20147;-63
2022/12/14 07:08:59;;;;;;;50.88;31.23;;;-0.80;58.50;;;;;;5064789;28;20036;-63
2022/12/14 07:11:26;;;;;;;44.72;29.70;;;-0.70;52.60;;;;;;5071398;28;20130;-63
2022/12/14 07:13:52;;;;;;;47.88;29.42;;;-1.00;34.90;;;;;;5074200;28;20078;-64
2022/12/14 07:16:20;;;;;;;54.42;30.00;;;-1.10;23.50;;;;;;5071238;28;20060;-64
2022/12/14 07:18:46;;;;;;;1999.90;425.42;;;-1.00;29.60;;;;;;5069425;28;20048;-62
2022/12/14 07:21:14;;;;;;;52.30;31.05;;;-0.40;99.90;;;;;;5069658;28;20036;-64
2022/12/14 07:23:41;;;;;;;49.15;30.38;;;-0.40;99.90;;;;;;5072729;28;20051;-65
2022/12/14 07:26:16;;;;;;;49.13;30.35;;;-0.60;99.90;;;;;;5070706;28;20040;-64
2022/12/14 07:28:43;;;;;;;49.85;29.08;;;-0.80;99.90;;;;;;5067308;28;20575;-64
2022/12/14 07:31:14;;;;;;;52.03;30.73;;;-0.50;99.90;;;;;;5066720;28;20048;-64
2022/12/14 07:33:40;;;;;;;48.33;29.50;;;-0.50;99.90;;;;;;5065098;28;20547;-64
2022/12/14 07:36:12;;;;;;;49.78;29.42;;;-0.70;99.90;;;;;;5072204;28;20044;-64
2022/12/14 07:38:39;;;;;;;52.58;29.88;;;-0.80;93.80;;;;;;5066316;28;20489;-64
2022/12/14 07:41:08;;;;;;;51.60;29.55;;;-0.80;32.50;;;;;;5064673;28;20178;-64
2022/12/14 07:43:34;;;;;;;51.53;30.35;;;-0.50;35.80;;;;;;5069200;28;20064;-64
2022/12/14 07:46:03;;;;;;;54.38;30.00;;;-0.70;39.30;;;;;;5072340;28;20119;-64
2022/12/14 07:48:28;;;;;;;51.40;29.60;;;-0.30;41.50;;;;;;5068601;28;20450;-64
2022/12/14 07:50:59;;;;;;;50.90;29.42;;;-0.20;19.00;;;;;;5072764;28;20291;-64
2022/12/14 07:53:25;;;;;;;48.50;28.98;;;-0.70;1.00;;;;;;5073464;28;20038;-64
2022/12/14 07:55:50;;;;;;;86.13;31.95;;;-0.80;1.00;;;;;;5072049;28;20119;-65
2022/12/14 07:58:16;;;;;;;50.45;31.13;;;-0.70;1.00;;;;;;5070480;28;20060;-64
2022/12/14 08:00:41;;;;;;;53.63;31.50;;;-0.70;1.00;;;;;;5073835;28;20112;-64
2022/12/14 08:03:07;;;;;;;45.63;28.40;;;-1.00;1.00;;;;;;5072141;28;20046;-64
2022/12/14 08:05:33;;;;;;;51.80;30.77;;;-0.70;1.00;;;;;;5072685;28;20043;-66
2022/12/14 08:07:59;;;;;;;48.95;30.48;;;-0.60;1.00;;;;;;5069103;28;20048;-64
2022/12/14 08:10:24;;;;;;;49.00;29.45;;;-0.80;1.00;;;;;;5072044;28;20036;-64
2022/12/14 08:12:50;;;;;;;46.20;29.90;;;-1.00;1.00;;;;;;5071350;28;20025;-64
2022/12/14 08:15:15;;;;;;;1999.90;291.63;;;-0.70;1.00;;;;;;5072251;28;20040;-64
2022/12/14 08:17:41;;;;;;;57.22;30.77;;;-0.90;1.00;;;;;;5066730;28;20036;-64
2022/12/14 08:20:07;;;;;;;48.45;28.27;;;-0.60;1.00;;;;;;5071135;28;20049;-64
2022/12/14 08:22:32;;;;;;;55.22;30.55;;;-0.50;99.90;;;;;;5068045;28;20794;-64
2022/12/14 08:24:58;;;;;;;48.10;30.20;;;-0.40;99.90;;;;;;5072576;28;20029;-65
2022/12/14 08:27:24;;;;;;;48.30;31.30;;;-0.50;99.90;;;;;;5071897;28;20513;-65
2022/12/14 08:29:49;;;;;;;46.47;31.52;;;-0.30;1.00;;;;;;5057151;28;20037;-65
2022/12/14 08:32:15;;;;;;;47.92;29.83;;;-0.50;1.00;;;;;;5070100;28;20043;-65
2022/12/14 08:34:40;;;;;;;49.13;29.55;;;-0.40;1.00;;;;;;5071859;28;20085;-65
2022/12/14 08:37:06;;;;;;;50.20;28.55;;;-0.60;1.00;;;;;;5072703;28;20044;-66
2022/12/14 08:39:31;;;;;;;47.45;29.20;;;-0.60;1.00;;;;;;5059584;28;20094;-65
2022/12/14 08:41:57;;;;;;;52.08;29.83;;;-0.20;1.00;;;;;;5072989;28;20040;-65
2022/12/14 08:44:23;;;;;;;48.15;29.30;;;0.00;1.00;;;;;;5071902;28;20053;-65
2022/12/14 08:46:48;;;;;;;46.47;28.55;;;0.10;1.00;;;;;;5071561;28;20048;-65
2022/12/14 08:49:14;;;;;;;47.35;29.17;;;0.10;1.00;;;;;;5070198;28;20042;-65
2022/12/14 08:51:40;;;;;;;43.60;28.52;;;0.00;1.00;;;;;;5067292;28;20044;-65
2022/12/14 08:54:06;;;;;;;1999.90;189.32;;;0.10;1.00;;;;;;5071809;28;20112;-65
2022/12/14 08:56:31;;;;;;;42.58;28.73;;;0.40;1.00;;;;;;5071322;28;20028;-66
2022/12/14 08:58:57;;;;;;;42.90;27.10;;;0.30;11.30;;;;;;5065169;28;20068;-65
2022/12/14 09:01:25;;;;;;;44.88;28.23;;;0.30;1.00;;;;;;5069015;28;20094;-65
2022/12/14 09:03:51;;;;;;;44.80;26.88;;;0.40;1.00;;;;;;5082876;28;20047;-66
2022/12/14 09:06:26;;;;;;;42.63;27.48;;;0.30;1.00;;;;;;5071004;28;20041;-66
2022/12/14 09:08:53;;;;;;;44.33;27.55;;;0.40;1.00;;;;;;5065536;28;20043;-66
2022/12/14 09:11:20;;;;;;;41.90;26.73;;;0.30;1.00;;;;;;5071439;28;20039;-66
2022/12/14 09:13:46;;;;;;;42.67;28.20;;;0.30;1.00;;;;;;5072273;28;20242;-66
2022/12/14 09:16:16;;;;;;;38.95;27.48;;;0.40;1.00;;;;;;5069211;28;20138;-66
2022/12/14 09:18:42;;;;;;;42.58;27.13;;;0.70;25.70;;;;;;5062111;28;20151;-66
2022/12/14 09:21:08;;;;;;;43.22;27.67;;;0.80;46.20;;;;;;5069907;28;20048;-65
2022/12/14 09:23:35;;;;;;;43.58;28.38;;;0.90;68.60;;;;;;5071567;28;20570;-66
2022/12/14 09:26:07;;;;;;;43.97;27.27;;;1.10;82.30;;;;;;5069648;28;20417;-66
2022/12/14 09:28:35;;;;;;;42.20;26.55;;;1.10;94.40;;;;;;5063752;28;20036;-66
2022/12/14 09:31:06;;;;;;;46.63;27.38;;;1.20;79.40;;;;;;5066917;28;20041;-66
2022/12/14 09:33:32;;;;;;;39.42;25.30;;;1.30;54.00;;;;;;5083519;28;20129;-66
2022/12/14 09:36:00;;;;;;;42.08;27.42;;;1.20;34.80;;;;;;5062884;28;20102;-66
2022/12/14 09:38:26;;;;;;;39.47;26.05;;;1.00;31.80;;;;;;5066073;28;20068;-66
2022/12/14 09:40:58;;;;;;;39.05;25.45;;;1.10;25.20;;;;;;5070531;28;20501;-66
2022/12/14 09:43:36;;;;;;;44.17;25.48;;;1.10;16.40;;;;;;5070284;28;20091;-65
2022/12/14 09:46:26;;;;;;;41.92;27.20;;;1.10;21.80;;;;;;5051553;28;20047;-65
2022/12/14 09:48:53;;;;;;;41.58;25.70;;;1.30;47.50;;;;;;5057536;28;20127;-66
2022/12/14 09:51:20;;;;;;;35.10;23.63;;;1.50;99.50;;;;;;5070669;28;20033;-67
2022/12/14 09:53:49;;;;;;;37.42;25.13;;;1.70;99.90;;;;;;5070192;28;20041;-66
2022/12/14 09:56:18;;;;;;;38.03;25.02;;;1.80;99.90;;;;;;5069251;28;20462;-66
2022/12/14 09:58:53;;;;;;;39.00;25.52;;;1.70;99.90;;;;;;5067980;28;20033;-66
2022/12/14 10:01:21;;;;;;;37.83;25.23;;;1.80;99.90;;;;;;5065966;28;20052;-66
2022/12/14 10:03:50;;;;;;;36.97;24.50;;;2.00;99.90;;;;;;5068646;28;20048;-66
2022/12/14 10:06:21;;;;;;;36.47;25.05;;;2.20;99.90;;;;;;5068443;28;20135;-66
2022/12/14 10:09:06;;;;;;;42.60;25.52;;;2.30;99.90;;;;;;5060336;28;20045;-67
2022/12/14 10:11:42;;;;;;;34.92;23.67;;;2.40;99.90;;;;;;5070420;28;20052;-67
2022/12/14 10:14:21;;;;;;;35.20;23.70;;;2.30;8.90;;;;;;5069396;28;20041;-66
2022/12/14 10:17:01;;;;;;;30.67;21.75;;;2.30;24.50;;;;;;5070668;28;20032;-66
2022/12/14 10:19:53;;;;;;;36.53;23.70;;;2.40;47.00;;;;;;5067596;28;20094;-65
2022/12/14 10:22:24;;;;;;;33.78;22.63;;;2.40;1.00;;;;;;5063418;28;20040;-66
2022/12/14 10:25:04;;;;;;;33.35;23.05;;;2.40;1.00;;;;;;5052788;28;20063;-66
2022/12/14 10:27:33;;;;;;;32.92;22.23;;;2.50;5.80;;;;;;5057010;28;20041;-66
2022/12/14 10:30:05;;;;;;;34.75;23.00;;;2.70;1.00;;;;;;5067446;28;20478;-66
2022/12/14 10:32:38;;;;;;;34.90;22.17;;;2.80;1.00;;;;;;5060295;28;20158;-66
2022/12/14 10:35:32;;;;;;;33.33;23.63;;;2.70;1.00;;;;;;5057791;28;20068;-66
2022/12/14 10:38:21;;;;;;;32.17;22.30;;;2.90;1.00;;;;;;5067435;28;20040;-66
2022/12/14 10:40:58;;;;;;;39.80;24.20;;;3.00;1.00;;;;;;5040092;28;20128;-66
2022/12/14 10:43:59;;;;;;;34.50;23.15;;;3.30;1.00;;;;;;5066148;28;20055;-66
2022/12/14 10:46:38;;;;;;;36.90;22.02;;;3.50;1.00;;;;;;5070183;28;20090;-66
2022/12/14 10:49:46;;;;;;;33.45;21.10;;;3.50;1.00;;;;;;5065741;28;20062;-66
2022/12/14 10:52:17;;;;;;;29.67;21.27;;;3.60;1.00;;;;;;5069624;28;20048;-65
2022/12/14 10:54:50;;;;;;;31.75;20.55;;;3.60;1.00;;;;;;5067546;28;20032;-65
2022/12/14 10:57:21;;;;;;;30.17;20.92;;;3.50;1.00;;;;;;5070148;28;20043;-65
2022/12/14 10:59:47;;;;;;;215.65;32.70;;;3.50;99.90;;;;;;5068240;28;20036;-65
2022/12/14 11:02:18;;;;;;;29.77;20.33;;;3.50;99.90;;;;;;5067871;28;20145;-65
2022/12/14 11:04:53;;;;;;;27.52;19.60;;;3.60;99.90;;;;;;5069015;28;20040;-65
2022/12/14 11:07:25;;;;;;;28.53;20.50;;;3.60;99.90;;;;;;5069481;28;20082;-65
2022/12/14 11:09:51;;;;;;;28.77;19.95;;;3.80;99.90;;;;;;5067592;28;20033;-65
2022/12/14 11:12:25;;;;;;;29.45;19.33;;;4.10;99.90;;;;;;5069826;28;20117;-64
2022/12/14 11:14:56;;;;;;;27.90;19.10;;;4.30;99.90;;;;;;5070665;28;20174;-64
2022/12/14 11:17:42;;;;;;;25.85;19.20;;;4.40;1.00;;;;;;5065581;28;20111;-64
2022/12/14 11:20:08;;;;;;;26.10;18.67;;;4.40;99.90;;;;;;5067215;28;20033;-64
2022/12/14 11:22:48;;;;;;;27.25;18.85;;;4.50;99.90;;;;;;5071972;28;20178;-64
2022/12/14 11:25:33;;;;;;;24.73;17.92;;;4.50;99.90;;;;;;5071494;28;20494;-64
2022/12/14 11:28:04;;;;;;;27.08;18.83;;;4.60;76.80;;;;;;5070951;28;20041;-64
2022/12/14 11:30:30;;;;;;;26.65;18.92;;;4.60;9.40;;;;;;5073285;28;20036;-64
2022/12/14 11:32:56;;;;;;;24.05;17.58;;;4.60;1.00;;;;;;5067512;28;20044;-64
2022/12/14 11:35:22;;;;;;;28.73;18.30;;;4.50;1.00;;;;;;5071829;28;20040;-64
2022/12/14 11:37:49;;;;;;;27.65;19.35;;;4.40;1.00;;;;;;5070878;28;20451;-63
2022/12/14 11:40:24;;;;;;;26.65;19.42;;;4.30;1.00;;;;;;5070253;28;20149;-64
2022/12/14 11:42:53;;;;;;;28.58;18.48;;;4.30;1.00;;;;;;5070385;28;20072;-63
2022/12/14 11:45:29;;;;;;;27.20;18.40;;;4.30;1.00;;;;;;5070808;28;20037;-64
2022/12/14 11:48:13;;;;;;;27.55;18.75;;;4.40;1.00;;;;;;5070588;28;20540;-63
2022/12/14 11:50:39;;;;;;;26.75;18.60;;;4.50;1.00;;;;;;5064395;28;20490;-64
2022/12/14 11:53:09;;;;;;;26.42;17.85;;;4.50;1.00;;;;;;5069851;28;20029;-64
2022/12/14 11:55:38;;;;;;;26.85;19.38;;;4.60;1.00;;;;;;5073109;28;20029;-63
2022/12/14 11:58:05;;;;;;;25.50;17.55;;;4.60;1.00;;;;;;5070427;28;20123;-63
2022/12/14 12:00:51;;;;;;;21.95;15.30;;;4.60;1.00;;;;;;5071277;28;20032;-63
2022/12/14 12:03:40;;;;;;;23.20;14.18;;;4.70;1.00;;;;;;5071071;28;20038;-63
2022/12/14 12:06:11;;;;;;;21.05;14.15;;;5.10;1.00;;;;;;5054320;28;20124;-63
2022/12/14 12:08:39;;;;;;;19.45;14.30;;;4.90;1.00;;;;;;5070981;28;20111;-63
2022/12/14 12:11:16;;;;;;;21.65;15.52;;;5.10;1.00;;;;;;5073541;28;20060;-63
2022/12/14 12:13:46;;;;;;;20.35;14.40;;;5.20;1.00;;;;;;5070772;28;20032;-62
2022/12/14 12:16:19;;;;;;;24.52;16.73;;;5.20;1.00;;;;;;5068826;28;20045;-62
2022/12/14 12:19:04;;;;;;;21.90;15.77;;;5.10;1.00;;;;;;5070931;28;20047;-62
2022/12/14 12:21:33;;;;;;;23.92;17.42;;;5.10;1.00;;;;;;5071065;28;20043;-62
2022/12/14 12:24:27;;;;;;;24.98;17.83;;;5.30;1.00;;;;;;5070043;28;20041;-62
2022/12/14 12:26:56;;;;;;;24.95;18.63;;;5.30;1.00;;;;;;5075271;28;20117;-63
2022/12/14 12:29:45;;;;;;;26.08;17.85;;;5.30;1.00;;;;;;5065157;28;20036;-62
2022/12/14 12:32:27;;;;;;;25.13;17.33;;;5.30;1.00;;;;;;5071918;28;20102;-63
2022/12/14 12:35:25;;;;;;;23.80;17.02;;;5.20;1.00;;;;;;5072607;28;20047;-62
2022/12/14 12:38:18;;;;;;;23.10;16.73;;;5.10;1.00;;;;;;5072587;28;20032;-63
2022/12/14 12:41:12;;;;;;;24.80;17.88;;;5.00;1.00;;;;;;5072161;28;20033;-63
2022/12/14 12:43:45;;;;;;;23.85;17.67;;;5.10;1.00;;;;;;5070779;28;20052;-63
2022/12/14 12:46:16;;;;;;;24.88;18.10;;;5.10;1.00;;;;;;5072688;28;20051;-63
2022/12/14 12:48:54;;;;;;;26.38;18.75;;;5.20;1.00;;;;;;5070992;28;20036;-63
2022/12/14 12:51:29;;;;;;;23.17;18.02;;;5.20;1.00;;;;;;5072832;28;20147;-63
2022/12/14 12:54:05;;;;;;;24.75;17.85;;;5.20;1.00;;;;;;5072646;28;20037;-63
2022/12/14 12:56:44;;;;;;;25.35;17.67;;;5.20;1.00;;;;;;5071516;28;20044;-63
2022/12/14 12:59:30;;;;;;;23.40;16.98;;;5.30;1.00;;;;;;5071892;28;20052;-63
2022/12/14 13:02:05;;;;;;;23.98;17.27;;;5.30;1.00;;;;;;5071525;28;20041;-63
2022/12/14 13:04:35;;;;;;;21.63;15.40;;;5.40;1.00;;;;;;5071220;28;20097;-63
2022/12/14 13:07:27;;;;;;;22.85;16.30;;;5.40;1.00;;;;;;5072104;28;20040;-63
2022/12/14 13:09:59;;;;;;;23.52;15.85;;;5.40;1.00;;;;;;5071829;28;20064;-63
2022/12/14 13:12:43;;;;;;;23.83;16.38;;;5.50;1.00;;;;;;5060356;28;20024;-63
2022/12/14 13:15:39;;;;;;;23.08;16.55;;;5.50;1.00;;;;;;5070952;28;20036;-63